Disclaimer

Please do not use the information listed here in-flight or in-navigation, as they are not provided to us by the airports but are provided by volunteers, so they might be outdated.

Search


Regions


Airport information page

Radio informations:
Tower (TWR) - 124.225 MHz
Automatic Terminal Information Service (ATIS) - 136.525 MHz

Airport informations:
Latitude: 51° 08' 53.00" N
Longitude: 000° 11' 25.00" W
Elevation: 202 feet - 62 meters
Operating hours: 24 hour operations
Operating agency: Civil government, landing fees and diplomatic clearance may be required
Timezone: UTC 0(+1DT) - Last Sunday in March to last Sunday in October
Fuel: Jet A1+, Jet A1 with icing inhibitor.

Runway information:
08R/26L - 10364 x 148 feet< - >3159 x 45 meters
08L/26R - 8415 x 148 feet< - >2565 x 45 meters

Recent METARs:
EGKK 181850Z 05012KT CAVOK 08/04 Q1025
EGKK 181920Z 05011KT CAVOK 07/04 Q1025
EGKK 181950Z 05010KT CAVOK 07/04 Q1024

Airport on the map: